createdAt,value
2022-08-04T00:00:52.652Z,22.5
2022-08-04T00:01:53.318Z,22.5
2022-08-04T00:02:53.903Z,22.4
2022-08-04T00:03:55.538Z,22.3
2022-08-04T00:04:56.239Z,22.3
2022-08-04T00:05:56.839Z,22.3
2022-08-04T00:06:57.451Z,22.2
2022-08-04T00:07:58.049Z,22.2
2022-08-04T00:08:58.646Z,22.1
2022-08-04T00:09:59.252Z,22.2
2022-08-04T00:10:59.839Z,22.1
2022-08-04T00:12:00.436Z,22.1
2022-08-04T00:13:01.031Z,22.1
2022-08-04T00:14:03.493Z,22.1
2022-08-04T00:15:03.217Z,22.1
2022-08-04T00:16:03.815Z,22.1
2022-08-04T00:17:04.413Z,22.1
2022-08-04T00:18:05.011Z,22.0
2022-08-04T00:19:05.605Z,22.0
2022-08-04T00:20:06.201Z,22.2
2022-08-04T00:21:06.821Z,22.3
2022-08-04T00:22:07.417Z,22.3
2022-08-04T00:23:08.015Z,22.3
2022-08-04T00:24:12.131Z,22.4
2022-08-04T00:25:10.199Z,22.2
2022-08-04T00:26:10.794Z,22.2
2022-08-04T00:27:11.391Z,22.1
2022-08-04T00:28:11.988Z,22.1
2022-08-04T00:29:12.585Z,22.0
2022-08-04T00:30:13.181Z,22.1
2022-08-04T00:31:13.777Z,22.2
2022-08-04T00:32:15.381Z,22.1
2022-08-04T00:33:15.977Z,22.2
2022-08-04T00:34:16.573Z,22.1
2022-08-04T00:35:17.172Z,22.1
2022-08-04T00:36:17.766Z,21.9
2022-08-04T00:37:18.360Z,21.9
2022-08-04T00:38:18.962Z,21.8
2022-08-04T00:39:19.929Z,21.7
2022-08-04T00:40:20.647Z,21.6
2022-08-04T00:41:21.243Z,21.5
2022-08-04T00:42:21.840Z,21.5
2022-08-04T00:43:22.434Z,21.4
2022-08-04T00:44:23.693Z,21.3
2022-08-04T00:45:24.621Z,21.2
2022-08-04T00:46:25.218Z,21.1
2022-08-04T00:47:25.813Z,21.0
2022-08-04T00:48:26.411Z,21.0
2022-08-04T00:49:27.029Z,20.8
2022-08-04T00:50:27.626Z,20.8
2022-08-04T00:51:28.243Z,20.7
2022-08-04T00:52:31.325Z,20.8
2022-08-04T00:53:30.426Z,20.7
2022-08-04T00:54:31.022Z,20.7
2022-08-04T00:55:31.619Z,20.8
2022-08-04T00:56:32.233Z,20.8
2022-08-04T00:57:34.395Z,20.7
2022-08-04T00:58:34.420Z,20.8
2022-08-04T00:59:35.014Z,20.7
2022-08-04T01:00:35.609Z,20.7
2022-08-04T01:01:36.266Z,20.7
2022-08-04T01:02:36.877Z,20.8
2022-08-04T01:03:37.470Z,20.7
2022-08-04T01:04:38.092Z,20.7
2022-08-04T01:05:38.687Z,20.7
2022-08-04T01:06:39.302Z,20.6
2022-08-04T01:07:39.899Z,20.6
2022-08-04T01:08:40.498Z,20.5
2022-08-04T01:09:41.097Z,20.6
2022-08-04T01:10:41.688Z,20.7
2022-08-04T01:11:57.570Z,20.7
2022-08-04T01:12:43.872Z,20.7
2022-08-04T01:13:44.469Z,20.9
2022-08-04T01:14:45.064Z,21.1
2022-08-04T01:15:59.348Z,21.1
2022-08-04T01:16:46.272Z,21.1
2022-08-04T01:17:46.869Z,21.0
2022-08-04T01:18:47.466Z,21.1
2022-08-04T01:19:48.064Z,20.9
2022-08-04T01:20:48.660Z,20.9
2022-08-04T01:21:49.256Z,20.9
2022-08-04T01:22:49.852Z,20.8
2022-08-04T01:23:50.450Z,20.7
2022-08-04T01:24:51.066Z,20.8
2022-08-04T01:25:52.049Z,20.8
2022-08-04T01:26:58.195Z,20.7
2022-08-04T01:27:55.229Z,20.7
2022-08-04T01:28:56.817Z,20.7
2022-08-04T01:29:57.415Z,20.7
2022-08-04T01:30:58.033Z,20.7
2022-08-04T01:31:58.628Z,20.7
2022-08-04T01:32:59.224Z,20.6
2022-08-04T01:34:03.897Z,20.6
2022-08-04T01:35:01.412Z,20.6
2022-08-04T01:36:02.075Z,20.7
2022-08-04T01:37:02.614Z,20.6
2022-08-04T01:38:18.302Z,20.7
2022-08-04T01:39:04.833Z,20.8
2022-08-04T01:40:05.397Z,20.7
2022-08-04T01:41:05.991Z,20.7
2022-08-04T01:42:06.589Z,20.7
2022-08-04T01:43:08.177Z,20.7
2022-08-04T01:44:08.776Z,20.6
2022-08-04T01:45:09.374Z,20.5
2022-08-04T01:46:09.971Z,20.4
2022-08-04T01:47:10.565Z,20.4
2022-08-04T01:48:11.160Z,20.4
2022-08-04T01:49:11.756Z,20.4
2022-08-04T01:50:12.354Z,20.4
2022-08-04T01:51:12.975Z,20.4
2022-08-04T01:52:13.587Z,20.5
2022-08-04T01:53:14.182Z,20.6
2022-08-04T01:54:14.779Z,20.7
2022-08-04T01:55:16.374Z,20.6
2022-08-04T01:56:16.966Z,20.6
2022-08-04T01:57:37.539Z,20.6
2022-08-04T01:58:19.152Z,20.6
2022-08-04T01:59:19.749Z,20.6
2022-08-04T02:00:20.350Z,20.5
2022-08-04T02:01:20.993Z,20.6
2022-08-04T02:02:21.636Z,20.6
2022-08-04T02:03:22.219Z,20.5
2022-08-04T02:04:23.912Z,20.5
2022-08-04T02:05:24.478Z,20.6
2022-08-04T02:06:25.075Z,20.5
2022-08-04T02:07:25.668Z,20.5
2022-08-04T02:08:27.550Z,20.7
2022-08-04T02:09:26.879Z,20.6
2022-08-04T02:10:27.475Z,20.7
2022-08-04T02:11:28.070Z,20.7
2022-08-04T02:12:28.667Z,20.7
2022-08-04T02:13:29.262Z,20.8
2022-08-04T02:14:29.861Z,20.7
2022-08-04T02:15:31.088Z,20.6
2022-08-04T02:16:31.685Z,20.7
2022-08-04T02:17:32.282Z,20.8
2022-08-04T02:18:32.878Z,20.8
2022-08-04T02:19:33.474Z,20.7
2022-08-04T02:20:34.072Z,20.7
2022-08-04T02:21:42.127Z,20.6
2022-08-04T02:22:36.258Z,20.6
2022-08-04T02:23:36.852Z,20.5
2022-08-04T02:24:37.451Z,20.5
2022-08-04T02:25:38.047Z,20.5
2022-08-04T02:26:38.643Z,20.5
2022-08-04T02:28:00.135Z,20.6
2022-08-04T02:28:40.831Z,20.6
2022-08-04T02:29:41.428Z,20.6
2022-08-04T02:30:42.023Z,20.6
2022-08-04T02:31:42.619Z,20.6
2022-08-04T02:32:43.219Z,20.6
2022-08-04T02:33:43.812Z,20.7
2022-08-04T02:34:44.428Z,20.6
2022-08-04T02:35:45.023Z,20.7
2022-08-04T02:36:45.618Z,20.6
2022-08-04T02:37:46.214Z,20.6
2022-08-04T02:38:46.831Z,20.5
2022-08-04T02:39:48.719Z,20.5
2022-08-04T02:40:48.995Z,20.5
2022-08-04T02:41:49.591Z,20.5
2022-08-04T02:42:50.187Z,20.4
2022-08-04T02:43:52.802Z,20.4
2022-08-04T02:44:52.371Z,20.4
2022-08-04T02:45:52.966Z,20.4
2022-08-04T02:46:53.565Z,20.4
2022-08-04T02:48:29.035Z,20.4
2022-08-04T02:48:55.751Z,20.5
2022-08-04T02:49:56.346Z,20.4
2022-08-04T02:50:57.844Z,20.5
2022-08-04T02:51:58.440Z,20.6
2022-08-04T02:52:59.037Z,20.4
2022-08-04T02:53:59.630Z,20.4
2022-08-04T02:55:00.229Z,20.3
2022-08-04T02:56:00.822Z,20.4
2022-08-04T02:57:01.422Z,20.4
2022-08-04T02:58:02.015Z,20.3
2022-08-04T02:59:02.627Z,20.3
2022-08-04T03:00:03.225Z,20.3
2022-08-04T03:01:03.862Z,20.3
2022-08-04T03:02:04.415Z,20.3
2022-08-04T03:03:05.013Z,20.2
2022-08-04T03:04:06.601Z,20.3
2022-08-04T03:05:07.198Z,20.3
2022-08-04T03:06:10.561Z,20.1
2022-08-04T03:07:15.593Z,20.2
2022-08-04T03:08:10.993Z,20.2
2022-08-04T03:09:11.588Z,20.2
2022-08-04T03:10:12.185Z,20.3
2022-08-04T03:11:12.782Z,20.3
2022-08-04T03:12:13.752Z,20.2
2022-08-04T03:13:14.369Z,20.3
2022-08-04T03:14:14.965Z,20.2
2022-08-04T03:15:15.562Z,20.2
2022-08-04T03:16:17.151Z,20.2
2022-08-04T03:17:17.747Z,20.2
2022-08-04T03:18:18.342Z,20.3
2022-08-04T03:19:18.940Z,20.4
2022-08-04T03:20:19.544Z,20.4
2022-08-04T03:21:20.135Z,20.3
2022-08-04T03:22:20.735Z,20.4
2022-08-04T03:23:21.335Z,20.3
2022-08-04T03:24:21.930Z,20.4
2022-08-04T03:25:22.533Z,20.4
2022-08-04T03:26:23.129Z,20.4
2022-08-04T03:27:23.768Z,20.4
2022-08-04T03:28:24.421Z,20.4
2022-08-04T03:29:36.548Z,20.3
2022-08-04T03:30:26.611Z,20.4
2022-08-04T03:31:27.209Z,20.3
2022-08-04T03:32:27.805Z,20.4
2022-08-04T03:33:28.407Z,20.4
2022-08-04T03:34:29.024Z,20.4
2022-08-04T03:35:29.623Z,20.3
2022-08-04T03:36:31.816Z,20.5
2022-08-04T03:37:31.815Z,20.5
2022-08-04T03:38:32.413Z,20.5
2022-08-04T03:39:33.092Z,20.5
2022-08-04T03:40:33.708Z,20.4
2022-08-04T03:41:57.363Z,20.4
2022-08-04T03:42:34.944Z,20.3
2022-08-04T03:43:58.000Z,20.4
2022-08-04T03:44:36.162Z,20.3
2022-08-04T03:45:36.764Z,20.4
2022-08-04T03:46:37.361Z,20.3
2022-08-04T03:47:44.238Z,20.3
2022-08-04T03:48:39.553Z,20.5
2022-08-04T03:49:40.151Z,20.6
2022-08-04T03:50:41.533Z,20.6
2022-08-04T03:51:41.367Z,20.6
2022-08-04T03:52:41.964Z,20.7
2022-08-04T03:53:43.556Z,20.6
2022-08-04T03:54:44.154Z,20.6
2022-08-04T03:55:44.755Z,20.5
2022-08-04T03:56:45.356Z,20.5
2022-08-04T03:57:45.956Z,20.5
2022-08-04T03:58:46.555Z,20.4
2022-08-04T03:59:48.738Z,20.4
2022-08-04T04:00:47.791Z,20.4
2022-08-04T04:02:02.399Z,20.4
2022-08-04T04:02:49.028Z,20.4
2022-08-04T04:03:49.598Z,20.4
2022-08-04T04:04:50.197Z,20.4
2022-08-04T04:05:58.955Z,20.4
2022-08-04T04:06:54.182Z,20.4
2022-08-04T04:07:59.617Z,20.3
2022-08-04T04:08:55.581Z,20.4
2022-08-04T04:10:05.864Z,20.4
2022-08-04T04:10:58.766Z,20.3
2022-08-04T04:11:59.371Z,20.3
2022-08-04T04:12:59.989Z,20.3
2022-08-04T04:14:00.590Z,20.3
2022-08-04T04:15:01.209Z,20.3
2022-08-04T04:16:01.815Z,20.2
2022-08-04T04:17:02.409Z,20.3
2022-08-04T04:18:03.008Z,20.4
2022-08-04T04:19:03.633Z,20.4
2022-08-04T04:20:04.230Z,20.5
2022-08-04T04:21:04.829Z,20.5
2022-08-04T04:22:05.431Z,20.6
2022-08-04T04:23:06.032Z,20.6
2022-08-04T04:24:07.628Z,20.5
2022-08-04T04:25:08.236Z,20.5
2022-08-04T04:26:08.835Z,20.5
2022-08-04T04:27:09.458Z,20.5
2022-08-04T04:28:44.185Z,20.4
2022-08-04T04:29:11.653Z,20.4
2022-08-04T04:30:12.258Z,20.4
2022-08-04T04:31:12.859Z,20.4
2022-08-04T04:32:13.460Z,20.4
2022-08-04T04:33:14.062Z,20.5
2022-08-04T04:34:14.663Z,20.5
2022-08-04T04:35:15.264Z,20.6
2022-08-04T04:36:15.866Z,20.7
2022-08-04T04:37:16.467Z,20.7
2022-08-04T04:38:17.069Z,20.7
2022-08-04T04:39:17.708Z,20.7
2022-08-04T04:40:18.296Z,20.7
2022-08-04T04:41:18.898Z,20.7
2022-08-04T04:42:19.502Z,20.7
2022-08-04T04:43:20.103Z,20.6
2022-08-04T04:44:20.706Z,20.6
2022-08-04T04:45:21.308Z,20.7
2022-08-04T04:46:21.909Z,20.6
2022-08-04T04:48:07.361Z,20.6
2022-08-04T04:48:24.107Z,20.6
2022-08-04T04:49:24.709Z,20.6
2022-08-04T04:50:33.634Z,20.6
2022-08-04T04:51:26.909Z,20.6
2022-08-04T04:52:27.510Z,20.6
2022-08-04T04:53:28.115Z,20.8
2022-08-04T04:54:28.715Z,20.7
2022-08-04T04:55:29.321Z,20.7
2022-08-04T04:56:29.922Z,20.7
2022-08-04T04:57:53.490Z,20.7
2022-08-04T04:58:32.121Z,20.8
2022-08-04T04:59:32.721Z,20.9
2022-08-04T05:00:33.325Z,20.8
2022-08-04T05:01:33.926Z,21.0
2022-08-04T05:02:34.528Z,21.0
2022-08-04T05:03:35.130Z,21.0
2022-08-04T05:04:35.733Z,21.2
2022-08-04T05:05:36.333Z,21.2
2022-08-04T05:06:36.955Z,21.3
2022-08-04T05:07:37.575Z,21.4
2022-08-04T05:08:43.820Z,21.4
2022-08-04T05:09:38.794Z,21.4
2022-08-04T05:10:39.395Z,21.5
2022-08-04T05:11:39.995Z,21.4
2022-08-04T05:14:22.823Z,21.4
2022-08-04T05:14:38.678Z,21.5
2022-08-04T05:14:43.803Z,21.4
2022-08-04T05:15:44.420Z,21.5
2022-08-04T05:16:45.010Z,21.5
2022-08-04T05:17:45.610Z,21.6
2022-08-04T05:18:46.217Z,21.7
2022-08-04T05:19:46.818Z,21.9
2022-08-04T05:20:47.422Z,21.7
2022-08-04T05:21:48.029Z,21.8
2022-08-04T05:22:48.629Z,21.8
2022-08-04T05:23:49.232Z,21.9
2022-08-04T05:24:49.834Z,21.8
2022-08-04T05:25:59.568Z,21.9
2022-08-04T05:26:52.029Z,21.9
2022-08-04T05:27:52.631Z,21.7
2022-08-04T05:28:53.237Z,21.6
2022-08-04T05:29:53.840Z,21.7
2022-08-04T05:30:54.438Z,21.5
2022-08-04T05:31:55.040Z,21.5
2022-08-04T05:32:59.112Z,21.5
2022-08-04T05:33:56.255Z,21.5
2022-08-04T05:34:56.859Z,21.5
2022-08-04T05:36:20.766Z,21.8
2022-08-04T05:36:59.053Z,22.0
2022-08-04T05:38:01.241Z,22.2
2022-08-04T05:39:01.330Z,22.1
2022-08-04T05:40:01.885Z,22.0
2022-08-04T05:41:02.487Z,22.5
2022-08-04T05:42:04.549Z,22.8
2022-08-04T05:43:04.687Z,23.3
2022-08-04T05:44:05.287Z,23.4
2022-08-04T05:45:05.890Z,23.8
2022-08-04T05:46:06.492Z,23.9
2022-08-04T05:47:07.092Z,24.1
2022-08-04T05:48:07.695Z,24.5
2022-08-04T05:49:08.296Z,24.8
2022-08-04T05:50:08.901Z,25.0
2022-08-04T05:51:09.522Z,25.1
2022-08-04T05:52:10.124Z,24.9
2022-08-04T05:53:10.725Z,24.9
2022-08-04T05:54:11.327Z,25.1
2022-08-04T05:55:11.931Z,25.2
2022-08-04T05:56:12.535Z,25.6
2022-08-04T05:57:13.203Z,25.5
2022-08-04T05:58:13.762Z,25.1
2022-08-04T05:59:14.365Z,25.1
2022-08-04T06:00:39.069Z,24.6
2022-08-04T06:01:15.629Z,24.5
2022-08-04T06:02:16.223Z,24.0
2022-08-04T06:03:16.795Z,23.6
2022-08-04T06:04:17.396Z,23.5
2022-08-04T06:05:17.998Z,23.6
2022-08-04T06:06:18.600Z,23.6
2022-08-04T06:07:19.313Z,24.5
2022-08-04T06:08:19.945Z,25.1
2022-08-04T06:09:20.543Z,25.9
2022-08-04T06:10:25.389Z,26.0
2022-08-04T06:11:22.739Z,25.9
2022-08-04T06:12:23.344Z,25.3
2022-08-04T06:13:48.017Z,24.6
2022-08-04T06:14:25.540Z,23.8
2022-08-04T06:15:26.141Z,23.6
2022-08-04T06:16:28.737Z,23.4
2022-08-04T06:18:33.594Z,23.7
2022-08-04T06:19:10.059Z,23.5
2022-08-04T06:20:02.192Z,23.9
2022-08-04T06:20:34.707Z,24.0
2022-08-04T06:21:34.735Z,24.7
2022-08-04T06:22:35.344Z,25.9
2022-08-04T06:23:35.963Z,26.4
2022-08-04T06:24:37.560Z,27.4
2022-08-04T06:25:38.163Z,28.4
2022-08-04T06:26:38.767Z,29.2
2022-08-04T06:27:39.368Z,29.2
2022-08-04T06:28:39.973Z,28.5
2022-08-04T06:29:40.573Z,28.1
2022-08-04T06:30:41.194Z,28.6
2022-08-04T06:32:28.537Z,29.0
2022-08-04T06:32:43.414Z,28.6
2022-08-04T06:33:54.630Z,29.0
2022-08-04T06:34:45.637Z,28.7
2022-08-04T06:35:46.244Z,28.5
2022-08-04T06:36:46.842Z,28.5
2022-08-04T06:37:47.772Z,28.3
2022-08-04T06:38:58.708Z,28.9
2022-08-04T06:39:50.112Z,28.9
2022-08-04T06:40:51.709Z,28.7
2022-08-04T06:42:02.515Z,28.9
2022-08-04T06:42:53.908Z,29.3
2022-08-04T06:43:54.511Z,28.6
2022-08-04T06:44:55.132Z,28.8
2022-08-04T06:45:55.737Z,29.1
2022-08-04T06:46:56.363Z,29.0
2022-08-04T06:47:56.985Z,28.7
2022-08-04T06:48:57.589Z,28.9
2022-08-04T06:51:25.335Z,28.6
2022-08-04T06:51:25.896Z,28.5
2022-08-04T06:52:00.436Z,28.7
2022-08-04T06:53:01.039Z,28.8
2022-08-04T06:54:01.642Z,29.4
2022-08-04T06:55:02.267Z,30.1
2022-08-04T06:56:02.874Z,29.5
2022-08-04T06:57:03.484Z,28.4
2022-08-04T06:58:04.091Z,27.7
2022-08-04T06:59:04.699Z,27.6
2022-08-04T07:00:05.300Z,27.6
2022-08-04T07:01:05.903Z,27.4
2022-08-04T07:02:06.546Z,26.9
2022-08-04T07:03:07.124Z,26.6
2022-08-04T07:04:07.711Z,26.4
2022-08-04T07:05:08.317Z,26.8
2022-08-04T07:06:14.334Z,26.7
2022-08-04T07:07:10.531Z,26.7
2022-08-04T07:08:11.135Z,27.2
2022-08-04T07:09:11.759Z,27.9
2022-08-04T07:10:12.386Z,28.6
2022-08-04T07:11:13.978Z,29.2
2022-08-04T07:12:14.580Z,29.5
2022-08-04T07:13:15.185Z,29.7
2022-08-04T07:14:15.806Z,29.2
2022-08-04T07:15:16.411Z,29.6
2022-08-04T07:16:17.011Z,29.0
2022-08-04T07:17:17.615Z,29.6
2022-08-04T07:18:18.215Z,29.6
2022-08-04T07:19:19.257Z,29.2
2022-08-04T07:20:34.672Z,28.9
2022-08-04T07:21:20.459Z,28.7
2022-08-04T07:22:25.565Z,28.7
2022-08-04T07:23:22.659Z,29.6
2022-08-04T07:24:23.262Z,30.0
2022-08-04T07:25:23.867Z,30.1
2022-08-04T07:26:25.461Z,30.0
2022-08-04T07:27:26.068Z,30.3
2022-08-04T07:28:27.665Z,30.2
2022-08-04T07:29:28.269Z,29.7
2022-08-04T07:30:28.875Z,29.9
2022-08-04T07:31:34.543Z,30.0
2022-08-04T07:32:31.093Z,29.7
2022-08-04T07:33:31.902Z,29.5
2022-08-04T07:34:32.509Z,29.7
2022-08-04T07:36:05.175Z,29.9
2022-08-04T07:36:41.995Z,30.3
2022-08-04T07:37:39.328Z,30.4
2022-08-04T07:38:46.625Z,30.6
2022-08-04T07:39:48.352Z,30.9
2022-08-04T07:40:41.112Z,31.2
2022-08-04T07:41:44.145Z,31.3
2022-08-04T07:42:42.337Z,31.4
2022-08-04T07:43:42.942Z,31.2
2022-08-04T07:44:43.547Z,31.6
2022-08-04T07:45:45.145Z,31.7
2022-08-04T07:46:46.742Z,32.0
2022-08-04T07:48:04.738Z,32.2
2022-08-04T07:48:48.941Z,32.0
2022-08-04T07:49:55.134Z,32.2
2022-08-04T07:50:51.163Z,31.8
2022-08-04T07:51:51.784Z,31.8
2022-08-04T07:53:15.309Z,32.1
2022-08-04T07:53:56.380Z,31.5
2022-08-04T07:54:55.579Z,31.6
2022-08-04T07:55:56.183Z,31.6
2022-08-04T07:56:56.787Z,31.6
2022-08-04T07:57:57.392Z,31.6
2022-08-04T07:58:57.995Z,31.3
2022-08-04T07:59:58.616Z,31.5
2022-08-04T08:00:59.217Z,31.4
2022-08-04T08:01:59.819Z,31.1
2022-08-04T08:03:00.505Z,31.1
2022-08-04T08:04:01.181Z,30.8
2022-08-04T08:05:01.768Z,30.8
2022-08-04T08:06:21.066Z,30.6
2022-08-04T08:07:04.017Z,30.8
2022-08-04T08:08:04.622Z,30.7
2022-08-04T08:09:13.833Z,30.5
2022-08-04T08:10:06.817Z,30.3
2022-08-04T08:11:07.418Z,30.3
2022-08-04T08:12:35.577Z,30.4
2022-08-04T08:13:09.650Z,30.7
2022-08-04T08:14:10.242Z,30.9
2022-08-04T08:15:10.864Z,31.1
2022-08-04T08:16:12.527Z,31.5
2022-08-04T08:17:13.085Z,32.0
2022-08-04T08:18:13.690Z,32.2
2022-08-04T08:19:14.292Z,31.9
2022-08-04T08:20:14.915Z,31.8
2022-08-04T08:21:16.512Z,31.6
2022-08-04T08:22:17.117Z,31.7
2022-08-04T08:23:17.719Z,31.6
2022-08-04T08:24:19.319Z,31.9
2022-08-04T08:25:19.919Z,32.3
2022-08-04T08:26:21.388Z,32.9
2022-08-04T08:27:22.241Z,33.1
2022-08-04T08:28:22.943Z,33.1
2022-08-04T08:29:23.544Z,32.6
2022-08-04T08:30:24.168Z,32.9
2022-08-04T08:31:56.453Z,32.5
2022-08-04T08:32:26.370Z,32.5
2022-08-04T08:33:26.973Z,32.6
2022-08-04T08:34:28.653Z,33.0
2022-08-04T08:35:29.191Z,33.0
2022-08-04T08:36:29.795Z,33.0
2022-08-04T08:37:30.402Z,32.9
2022-08-04T08:38:31.042Z,33.1
2022-08-04T08:39:31.779Z,33.2
2022-08-04T08:40:40.930Z,33.4
2022-08-04T08:41:34.034Z,33.4
2022-08-04T08:42:34.636Z,33.6
2022-08-04T08:44:05.905Z,33.9
2022-08-04T08:44:37.743Z,33.5
2022-08-04T08:45:38.433Z,33.6
2022-08-04T08:46:49.321Z,34.0
2022-08-04T08:48:04.710Z,33.8
2022-08-04T08:48:42.130Z,33.8
2022-08-04T08:50:00.415Z,34.0
2022-08-04T08:50:44.329Z,33.9
2022-08-04T08:51:47.593Z,33.9
2022-08-04T08:52:55.363Z,34.3
2022-08-04T08:53:48.126Z,34.7
2022-08-04T08:54:48.731Z,34.9
2022-08-04T08:55:49.331Z,35.1
2022-08-04T08:56:49.939Z,35.2
2022-08-04T08:57:59.942Z,35.2
2022-08-04T08:58:52.157Z,35.1
2022-08-04T08:59:52.756Z,35.2
2022-08-04T09:00:53.359Z,35.5
2022-08-04T09:01:53.996Z,35.6
2022-08-04T09:03:04.646Z,35.7
2022-08-04T09:03:56.174Z,35.3
2022-08-04T09:04:56.801Z,35.2
2022-08-04T09:05:57.422Z,35.4
2022-08-04T09:06:58.027Z,35.5
2022-08-04T09:07:58.628Z,35.0
2022-08-04T09:08:59.252Z,35.0
2022-08-04T09:09:59.855Z,35.2
2022-08-04T09:11:01.223Z,35.2
2022-08-04T09:12:01.825Z,35.4
2022-08-04T09:13:02.436Z,35.9
2022-08-04T09:14:03.036Z,35.8
2022-08-04T09:15:03.643Z,35.8
2022-08-04T09:16:04.243Z,35.8
2022-08-04T09:17:04.846Z,35.9
2022-08-04T09:18:05.447Z,36.2
2022-08-04T09:19:06.052Z,36.4
2022-08-04T09:20:06.654Z,36.3
2022-08-04T09:21:07.259Z,36.1
2022-08-04T09:22:12.322Z,36.4
2022-08-04T09:23:09.461Z,36.6
2022-08-04T09:24:35.275Z,36.3
2022-08-04T09:25:11.664Z,36.2
2022-08-04T09:26:12.267Z,36.1
2022-08-04T09:27:12.872Z,36.1
2022-08-04T09:28:13.475Z,36.1
2022-08-04T09:29:14.079Z,36.3
2022-08-04T09:30:14.706Z,36.5
2022-08-04T09:31:15.310Z,36.8
2022-08-04T09:32:15.912Z,36.8
2022-08-04T09:33:16.516Z,36.9
2022-08-04T09:34:17.136Z,36.9
2022-08-04T09:35:17.742Z,36.8
2022-08-04T09:36:25.954Z,36.9
2022-08-04T09:37:20.165Z,36.9
2022-08-04T09:38:20.563Z,37.1
2022-08-04T09:39:21.247Z,37.2
2022-08-04T09:40:28.175Z,37.4
2022-08-04T09:41:45.474Z,37.3
2022-08-04T09:42:26.151Z,37.0
2022-08-04T09:43:26.589Z,36.8
2022-08-04T09:44:50.315Z,36.2
2022-08-04T09:45:43.252Z,36.2
2022-08-04T09:46:29.426Z,36.2
2022-08-04T09:47:39.437Z,36.4
2022-08-04T09:48:31.627Z,36.6
2022-08-04T09:49:32.234Z,36.8
2022-08-04T09:50:32.841Z,36.7
2022-08-04T09:51:59.089Z,36.7
2022-08-04T09:52:35.060Z,36.4
2022-08-04T09:53:35.690Z,36.4
2022-08-04T09:54:36.310Z,36.7
2022-08-04T09:55:36.913Z,36.5
2022-08-04T09:56:38.511Z,36.4
2022-08-04T09:57:39.116Z,36.6
2022-08-04T09:58:39.721Z,36.5
2022-08-04T09:59:40.323Z,36.4
2022-08-04T10:00:42.086Z,36.0
2022-08-04T10:01:42.522Z,35.9
2022-08-04T10:02:43.143Z,36.1
2022-08-04T10:03:43.750Z,36.1
2022-08-04T10:04:44.356Z,36.5
2022-08-04T10:05:44.966Z,36.8
2022-08-04T10:06:45.566Z,37.0
2022-08-04T10:07:59.617Z,37.2
2022-08-04T10:08:47.769Z,37.5
2022-08-04T10:09:48.373Z,37.7
2022-08-04T10:10:48.997Z,37.8
2022-08-04T10:11:54.734Z,37.5
2022-08-04T10:12:51.200Z,37.4
2022-08-04T10:13:51.808Z,37.4
2022-08-04T10:14:52.418Z,37.3
2022-08-04T10:15:53.054Z,37.2
2022-08-04T10:16:53.677Z,37.1
2022-08-04T10:17:54.282Z,37.1
2022-08-04T10:18:54.884Z,36.7
2022-08-04T10:19:55.490Z,37.0
2022-08-04T10:21:00.060Z,37.1
2022-08-04T10:21:59.453Z,37.0
2022-08-04T10:23:11.034Z,36.5
2022-08-04T10:24:00.891Z,36.6
2022-08-04T10:25:01.491Z,36.6
2022-08-04T10:26:07.667Z,36.8
2022-08-04T10:27:03.695Z,36.9
2022-08-04T10:28:04.298Z,36.9
2022-08-04T10:29:04.903Z,37.0
2022-08-04T10:30:05.508Z,37.2
2022-08-04T10:31:06.116Z,37.0
2022-08-04T10:32:06.742Z,37.1
2022-08-04T10:33:07.366Z,37.1
2022-08-04T10:34:07.968Z,37.1
2022-08-04T10:35:08.574Z,37.2
2022-08-04T10:36:09.178Z,37.1
2022-08-04T10:37:09.798Z,37.3
2022-08-04T10:38:10.406Z,37.2
2022-08-04T10:39:13.751Z,37.4
2022-08-04T10:40:11.677Z,37.3
2022-08-04T10:41:12.253Z,37.3
2022-08-04T10:42:12.858Z,37.4
2022-08-04T10:43:20.771Z,37.5
2022-08-04T10:44:15.062Z,37.6
2022-08-04T10:45:15.691Z,37.5
2022-08-04T10:46:16.294Z,37.6
2022-08-04T10:47:16.899Z,37.3
2022-08-04T10:48:17.526Z,37.6
2022-08-04T10:49:19.125Z,37.3
2022-08-04T10:50:20.720Z,37.0
2022-08-04T10:51:21.329Z,37.2
2022-08-04T10:52:21.951Z,37.0
2022-08-04T10:53:22.558Z,36.9
2022-08-04T10:54:23.183Z,36.9
2022-08-04T10:55:23.792Z,37.0
2022-08-04T10:56:25.385Z,37.2
2022-08-04T10:57:25.992Z,37.4
2022-08-04T10:58:47.510Z,37.8
2022-08-04T10:59:28.193Z,37.9
2022-08-04T11:00:28.803Z,37.9
2022-08-04T11:01:59.600Z,37.9
2022-08-04T11:02:30.088Z,37.8
2022-08-04T11:03:30.645Z,37.6
2022-08-04T11:04:31.269Z,37.1
2022-08-04T11:05:31.895Z,37.2
2022-08-04T11:06:32.498Z,37.3
2022-08-04T11:07:33.104Z,37.6
2022-08-04T11:08:33.709Z,37.4
2022-08-04T11:09:34.330Z,37.3
2022-08-04T11:10:34.932Z,37.4
2022-08-04T11:12:00.109Z,37.5
2022-08-04T11:12:37.137Z,37.7
2022-08-04T11:13:37.737Z,37.5
2022-08-04T11:14:38.902Z,37.4
2022-08-04T11:15:38.982Z,37.3
2022-08-04T11:16:39.586Z,37.3
2022-08-04T11:17:40.193Z,37.5
2022-08-04T11:18:40.799Z,37.9
2022-08-04T11:19:42.839Z,38.1
2022-08-04T11:20:42.031Z,38.2
2022-08-04T11:21:42.630Z,37.8
2022-08-04T11:22:43.233Z,37.6
2022-08-04T11:23:43.860Z,37.5
2022-08-04T11:24:44.461Z,37.5
2022-08-04T11:25:48.465Z,37.7
2022-08-04T11:26:45.688Z,37.3
2022-08-04T11:27:46.296Z,37.1
2022-08-04T11:28:52.501Z,37.0
2022-08-04T11:29:48.500Z,36.9
2022-08-04T11:30:49.102Z,36.7
2022-08-04T11:31:51.824Z,36.8
2022-08-04T11:32:51.304Z,36.8
2022-08-04T11:33:51.912Z,36.7
2022-08-04T11:34:52.862Z,36.6
2022-08-04T11:35:53.755Z,36.6
2022-08-04T11:36:54.358Z,36.7
2022-08-04T11:37:54.963Z,36.8
2022-08-04T11:38:55.624Z,36.9
2022-08-04T11:39:56.183Z,36.8
2022-08-04T11:41:03.169Z,37.0
2022-08-04T11:41:58.391Z,37.1
2022-08-04T11:42:58.993Z,37.0
2022-08-04T11:44:01.720Z,36.6
2022-08-04T11:45:01.398Z,36.4
2022-08-04T11:46:02.009Z,36.4
2022-08-04T11:47:02.613Z,36.6
2022-08-04T11:48:03.218Z,36.9
2022-08-04T11:49:03.822Z,37.2
2022-08-04T11:50:04.428Z,37.4
2022-08-04T11:51:06.783Z,37.5
2022-08-04T11:52:06.629Z,37.7
2022-08-04T11:53:07.234Z,37.9
2022-08-04T11:54:07.838Z,37.7
2022-08-04T11:55:08.443Z,37.7
2022-08-04T11:56:11.071Z,37.8
2022-08-04T11:57:09.682Z,37.5
2022-08-04T11:58:10.319Z,37.4
2022-08-04T11:59:10.943Z,37.4
2022-08-04T12:00:11.621Z,37.2
2022-08-04T12:01:12.181Z,37.2
2022-08-04T12:02:13.624Z,37.1
2022-08-04T12:03:14.383Z,36.7
2022-08-04T12:04:15.009Z,36.7
2022-08-04T12:05:32.402Z,36.7
2022-08-04T12:06:16.237Z,37.0
2022-08-04T12:07:33.697Z,37.0
2022-08-04T12:08:18.438Z,37.1
2022-08-04T12:09:19.043Z,37.4
2022-08-04T12:10:41.422Z,37.4
2022-08-04T12:11:21.250Z,37.5
2022-08-04T12:12:21.873Z,37.7
2022-08-04T12:13:22.484Z,38.0
2022-08-04T12:14:23.087Z,38.0
2022-08-04T12:15:23.692Z,37.8
2022-08-04T12:16:24.333Z,37.7
2022-08-04T12:17:24.921Z,37.7
2022-08-04T12:18:26.521Z,37.7
2022-08-04T12:19:30.907Z,37.7
2022-08-04T12:20:34.359Z,37.7
2022-08-04T12:21:30.512Z,37.2
2022-08-04T12:22:31.509Z,36.8
2022-08-04T12:23:32.685Z,36.7
2022-08-04T12:24:33.292Z,36.8
2022-08-04T12:25:33.895Z,37.0
2022-08-04T12:26:34.504Z,36.9
2022-08-04T12:27:35.123Z,37.0
2022-08-04T12:28:59.577Z,36.4
2022-08-04T12:29:36.349Z,36.5
2022-08-04T12:30:57.502Z,36.6
2022-08-04T12:31:38.552Z,36.5
2022-08-04T12:32:39.156Z,36.7
2022-08-04T12:34:05.701Z,36.5
2022-08-04T12:34:41.376Z,36.5
2022-08-04T12:36:10.495Z,36.5
2022-08-04T12:36:43.581Z,36.7
2022-08-04T12:37:44.184Z,36.9
2022-08-04T12:38:44.789Z,37.0
2022-08-04T12:40:28.304Z,36.9
2022-08-04T12:40:46.994Z,37.0
2022-08-04T12:41:47.618Z,37.0
2022-08-04T12:42:55.886Z,36.9
2022-08-04T12:43:48.847Z,36.7
2022-08-04T12:44:49.450Z,36.8
2022-08-04T12:45:50.053Z,36.9
2022-08-04T12:46:50.676Z,37.0
2022-08-04T12:47:51.288Z,36.7
2022-08-04T12:48:51.885Z,36.5
2022-08-04T12:50:01.058Z,36.5
2022-08-04T12:50:54.095Z,36.5
2022-08-04T12:52:08.601Z,36.2
2022-08-04T12:53:02.064Z,36.1
2022-08-04T12:53:57.892Z,36.3
2022-08-04T12:54:58.498Z,36.5
2022-08-04T12:56:01.928Z,36.3
2022-08-04T12:57:00.702Z,36.3
2022-08-04T12:58:01.325Z,36.5
2022-08-04T12:59:01.910Z,36.7
2022-08-04T13:00:02.533Z,36.8
2022-08-04T13:01:03.157Z,36.9
2022-08-04T13:02:08.919Z,37.3
2022-08-04T13:03:06.321Z,37.7
2022-08-04T13:04:07.916Z,38.0
2022-08-04T13:05:08.521Z,38.4
2022-08-04T13:06:09.124Z,38.5
2022-08-04T13:07:09.750Z,38.3
2022-08-04T13:08:10.354Z,38.2
2022-08-04T13:09:17.558Z,38.3
2022-08-04T13:10:12.555Z,38.1
2022-08-04T13:11:14.154Z,38.0
2022-08-04T13:12:14.757Z,37.9
2022-08-04T13:13:15.371Z,37.8
2022-08-04T13:14:26.515Z,37.9
2022-08-04T13:15:18.509Z,37.9
2022-08-04T13:16:18.187Z,37.9
2022-08-04T13:17:20.012Z,37.9
2022-08-04T13:18:23.194Z,37.8
2022-08-04T13:19:22.984Z,37.7
2022-08-04T13:20:23.588Z,37.4
2022-08-04T13:21:50.123Z,37.5
2022-08-04T13:22:26.593Z,37.3
2022-08-04T13:23:27.217Z,37.1
2022-08-04T13:24:32.418Z,36.7
2022-08-04T13:26:44.491Z,36.0
2022-08-04T13:26:45.048Z,36.3
2022-08-04T13:27:43.142Z,36.1
2022-08-04T13:28:34.210Z,36.4
2022-08-04T13:30:00.228Z,36.6